Terminal Aerodrome Forecast
Issued by NWS Lake Charles, LA

Home | Current Version | Previous Version | Text Only | Print | Product List | Glossary On
Versions: 1 2 3 4 5 6 7 8 9 10 11 12 13 14
000
FTUS44 KLCH 251804 AAA
TAFAEX
TAF AMD
KAEX 251804Z 2518/2618 10006KT P6SM VCTS SCT035 BKN050CB
      TEMPO 2520/2524 VRB15G25KT 2SM +TSRA OVC025CB
     FM260200 VRB03KT P6SM FEW050 BKN150=

USA.gov is the U.S. government's official web portal to all federal, state and local government web resources and services.